This is the latest recevied weather packets stored in our database for station/object N2ZVN. If no packets are shown the sender has not sent any weather packets the latest 1 day(s).
| Time | Temp. | Humidity | Pressure | Rain* | Wind** | Luminosity | Snow |
|---|---|---|---|---|---|---|---|
| 1777985815 | 20° C | 56% | 1002.3 hPa | 0 mm | 1.34 m/s, 219° | 151 W/m² | - |
| 1777985512 | 20° C | 57% | 1002.5 hPa | 0 mm | 1.79 m/s, 259° | 112 W/m² | - |
| 1777985209 | 20° C | 57% | 1002.5 hPa | 0 mm | 1.79 m/s, 294° | 48 W/m² | - |
| 1777984905 | 20° C | 58% | 1002.5 hPa | 0 mm | 0.45 m/s, 260° | 54 W/m² | - |
| 1777984601 | 20° C | 57% | 1002.6 hPa | 0 mm | 0.89 m/s, 239° | 94 W/m² | - |
| 1777984298 | 20° C | 58% | 1002.5 hPa | 0 mm | 1.34 m/s, 237° | 38 W/m² | - |
| 1777983994 | 20° C | 57% | 1002.4 hPa | 0 mm | 1.79 m/s, 263° | 69 W/m² | - |
| 1777983692 | 20° C | 57% | 1002.5 hPa | 0 mm | 0.45 m/s, 217° | 79 W/m² | - |
| 1777983388 | 20° C | 57% | 1002.4 hPa | 0 mm | 1.79 m/s, 258° | 83 W/m² | - |
| 1777983085 | 19.44° C | 59% | 1002.2 hPa | 0 mm | 0.89 m/s, 208° | 73 W/m² | - |
| 1777982781 | 19.44° C | 58% | 1002.1 hPa | 0 mm | 0.89 m/s, 221° | 77 W/m² | - |
| 1777982477 | 19.44° C | 58% | 1002.2 hPa | 0 mm | 1.34 m/s, 246° | 88 W/m² | - |
| 1777982172 | 19.44° C | 58% | 1002.2 hPa | 0 mm | 1.34 m/s, 252° | 96 W/m² | - |
| 1777981869 | 19.44° C | 59% | 1002 hPa | 0 mm | 0.45 m/s, 226° | 92 W/m² | - |
| 1777981566 | 19.44° C | 59% | 1002.1 hPa | 0 mm | 0.89 m/s, 238° | 79 W/m² | - |
| 1777981263 | 18.89° C | 59% | 1002.1 hPa | 0 mm | 1.34 m/s, 231° | 64 W/m² | - |
| 1777980959 | 19.44° C | 60% | 1002 hPa | 0 mm | 0.45 m/s, 226° | 59 W/m² | - |
| 1777980656 | 18.89° C | 60% | 1002 hPa | 0 mm | 0.89 m/s, 257° | 64 W/m² | - |
| 1777980352 | 18.89° C | 60% | 1001.9 hPa | 0 mm | 0.89 m/s, 239° | 58 W/m² | - |
| 1777980051 | 18.89° C | 60% | 1001.9 hPa | 0 mm | 2.24 m/s, 251° | 59 W/m² | - |
| 1777979750 | 18.89° C | 61% | 1001.8 hPa | 0 mm | 0.89 m/s, 241° | 69 W/m² | - |
| 1777979446 | 18.89° C | 60% | 1001.8 hPa | 0 mm | 1.34 m/s, 239° | 56 W/m² | - |
| 1777979143 | 18.89° C | 60% | 1001.6 hPa | 0 mm | 0.89 m/s, 246° | 44 W/m² | - |
| 1777978840 | 18.33° C | 62% | 1001.6 hPa | 0 mm | 1.79 m/s, 245° | 45 W/m² | - |
| 1777978536 | 18.33° C | 62% | 1001.3 hPa | 0 mm | 0.89 m/s, 230° | 48 W/m² | - |
* Rain latest hour (hover to see other rain measurements)
** Current wind speed in m/s (hover to see current wind gust speed)